Time;durP1;ratioP1;P1;durP2;ratioP2;P2;SDS_P1;SDS_P2;PMS_P1;PMS_P2;Temp;Humidity;BMP_temperature;BMP_pressure;BME280_temperature;BME280_humidity;BME280_pressure;Samples;Min_cycle;Max_cycle;Signal;HPM_P1;HPM_P2
2021/01/23 00:02:25;;;;;;;22.05;11.05;;;;;;;0.92;87.35;99195.66;5137001;27;20199;-54
2021/01/23 00:04:52;;;;;;;32.97;14.68;;;;;;;0.86;87.54;99206.34;5135383;27;20291;-55
2021/01/23 00:07:19;;;;;;;29.58;13.43;;;;;;;0.83;87.72;99202.75;5137142;27;20580;-54
2021/01/23 00:09:46;;;;;;;42.00;18.75;;;;;;;0.87;87.73;99204.69;5135340;28;20589;-54
2021/01/23 00:12:17;;;;;;;30.27;13.95;;;;;;;0.93;87.78;99203.34;5136946;28;20206;-53
2021/01/23 00:14:44;;;;;;;30.10;14.68;;;;;;;0.84;87.51;99205.41;5135374;27;20325;-56
2021/01/23 00:17:10;;;;;;;36.30;15.68;;;;;;;0.88;87.87;99203.91;5136850;28;20251;-53
2021/01/23 00:19:37;;;;;;;74.25;25.70;;;;;;;0.99;87.72;99201.94;5135820;27;20307;-55
2021/01/23 00:22:04;;;;;;;31.13;14.40;;;;;;;0.86;87.45;99205.50;5136888;28;20297;-56
2021/01/23 00:24:30;;;;;;;55.58;21.63;;;;;;;0.89;87.55;99193.84;5134616;27;20253;-56
2021/01/23 00:26:58;;;;;;;33.08;15.15;;;;;;;0.96;87.45;99195.03;5136656;28;20229;-52
2021/01/23 00:29:24;;;;;;;35.83;14.77;;;;;;;0.94;87.38;99192.38;5135442;27;20329;-55
2021/01/23 00:31:51;;;;;;;39.58;17.90;;;;;;;0.94;87.66;99192.38;5136685;28;20226;-53
2021/01/23 00:34:18;;;;;;;63.13;22.70;;;;;;;0.96;87.54;99196.72;5135421;27;20230;-56
2021/01/23 00:36:44;;;;;;;36.30;17.90;;;;;;;0.98;87.23;99196.00;5136826;28;20219;-56
2021/01/23 00:39:11;;;;;;;49.60;17.63;;;;;;;0.83;87.36;99206.19;5135113;27;20225;-55
2021/01/23 00:41:39;;;;;;;50.13;17.70;;;;;;;0.86;87.72;99191.09;5136631;28;20230;-56
2021/01/23 00:44:06;;;;;;;48.60;20.45;;;;;;;0.99;87.53;99200.28;5133955;27;20195;-55
2021/01/23 00:46:33;;;;;;;36.60;16.10;;;;;;;0.96;87.37;99191.63;5135966;28;20226;-58
2021/01/23 00:49:00;;;;;;;30.08;15.63;;;;;;;0.97;86.89;99201.00;5136645;28;20255;-57
2021/01/23 00:51:26;;;;;;;41.80;18.90;;;;;;;0.99;86.99;99201.94;5135581;27;20246;-55
2021/01/23 00:53:53;;;;;;;33.28;16.05;;;;;;;1.00;87.03;99198.59;5136489;28;20290;-55
2021/01/23 00:56:19;;;;;;;49.05;21.80;;;;;;;0.97;87.24;99195.91;5134855;27;20623;-55
2021/01/23 00:58:46;;;;;;;38.47;16.40;;;;;;;0.98;86.69;99200.19;5136222;28;20209;-56
2021/01/23 01:01:14;;;;;;;36.75;16.08;;;;;;;0.87;86.97;99203.00;5135322;27;20644;-56
2021/01/23 01:03:41;;;;;;;62.63;26.20;;;;;;;0.99;87.24;99212.09;5136825;28;20199;-55
2021/01/23 01:06:08;;;;;;;59.25;21.13;;;;;;;0.85;87.26;99211.31;5135089;27;20262;-55
2021/01/23 01:08:35;;;;;;;33.40;16.73;;;;;;;0.69;87.75;99215.56;5140568;27;20207;-56
2021/01/23 01:11:01;;;;;;;39.03;17.67;;;;;;;0.77;87.65;99206.69;5138838;27;20250;-54
2021/01/23 01:13:29;;;;;;;35.25;16.00;;;;;;;0.70;87.64;99208.78;5140087;27;20202;-56
2021/01/23 01:15:56;;;;;;;33.97;15.45;;;;;;;0.66;88.02;99211.19;5138733;27;20287;-54
2021/01/23 01:18:23;;;;;;;41.05;18.23;;;;;;;0.68;87.80;99211.28;5140100;27;20199;-52
2021/01/23 01:20:50;;;;;;;35.47;16.48;;;;;;;0.61;88.24;99216.81;5138898;27;20231;-53
2021/01/23 01:23:16;;;;;;;31.25;15.80;;;;;;;0.51;88.18;99217.94;5139901;27;20202;-55
2021/01/23 01:25:43;;;;;;;41.33;18.52;;;;;;;0.58;88.50;99214.97;5138633;27;20317;-50
2021/01/23 01:28:10;;;;;;;38.17;17.77;;;;;;;0.49;88.43;99210.22;5139713;27;20205;-56
2021/01/23 01:30:36;;;;;;;40.85;17.63;;;;;;;0.45;88.89;99202.34;5138862;27;20335;-54
2021/01/23 01:33:03;;;;;;;41.53;18.00;;;;;;;0.55;88.63;99202.06;5139398;27;20203;-51
2021/01/23 01:35:32;;;;;;;40.88;16.65;;;;;;;0.49;88.61;99204.25;5137836;27;20589;-52
2021/01/23 01:37:59;;;;;;;39.85;17.45;;;;;;;0.46;88.55;99204.09;5139808;27;20241;-54
2021/01/23 01:40:25;;;;;;;50.75;21.10;;;;;;;0.55;88.82;99204.63;5138655;27;20580;-58
2021/01/23 01:42:52;;;;;;;40.00;16.55;;;;;;;0.47;88.83;99203.31;5139300;27;20293;-52
2021/01/23 01:45:19;;;;;;;44.65;17.80;;;;;;;0.50;88.69;99200.94;5138484;27;20234;-58
2021/01/23 01:47:46;;;;;;;38.20;17.70;;;;;;;0.59;88.42;99200.59;5139641;27;20230;-52
2021/01/23 01:50:14;;;;;;;40.33;17.15;;;;;;;0.51;88.59;99207.78;5138710;27;20254;-54
2021/01/23 01:52:43;;;;;;;43.55;16.83;;;;;;;0.42;88.88;99204.69;5139476;27;20216;-52
2021/01/23 01:55:11;;;;;;;41.20;18.02;;;;;;;0.44;88.96;99198.94;5137872;27;20270;-54
2021/01/23 01:57:37;;;;;;;53.33;18.33;;;;;;;0.47;88.78;99195.69;5139470;27;20325;-55
2021/01/23 02:00:06;;;;;;;37.67;18.20;;;;;;;0.53;88.64;99196.03;5138260;27;20230;-53
2021/01/23 02:02:46;;;;;;;35.80;16.63;;;;;;;0.44;88.55;99195.50;5139275;27;20520;-56
2021/01/23 02:05:18;;;;;;;33.35;15.95;;;;;;;0.34;89.26;99205.13;5137867;27;20238;-57
2021/01/23 02:07:59;;;;;;;40.33;16.80;;;;;;;0.40;89.23;99212.22;5139372;27;20186;-55
2021/01/23 02:10:34;;;;;;;38.40;17.90;;;;;;;0.44;89.00;99208.19;5137907;27;20321;-54
2021/01/23 02:13:10;;;;;;;43.25;18.70;;;;;;;0.41;89.03;99211.44;5133839;27;20198;-59
2021/01/23 02:15:44;;;;;;;37.45;16.67;;;;;;;0.32;89.33;99216.88;5137861;27;20262;-53
2021/01/23 02:18:12;;;;;;;40.15;18.73;;;;;;;0.39;89.30;99218.97;5138797;27;20280;-56
2021/01/23 02:21:09;;;;;;;43.35;18.58;;;;;;;0.39;89.42;99215.56;5138044;27;20257;-57
2021/01/23 02:23:45;;;;;;;42.30;18.88;;;;;;;0.42;89.25;99214.84;5138754;27;20203;-55
2021/01/23 02:26:14;;;;;;;52.25;21.05;;;;;;;0.48;89.53;99212.66;5137302;27;20317;-57
2021/01/23 02:28:49;;;;;;;48.30;19.40;;;;;;;0.47;89.01;99205.84;5138603;27;20199;-54
2021/01/23 02:31:18;;;;;;;50.03;20.85;;;;;;;0.52;89.03;99214.59;5137520;27;20298;-53
2021/01/23 02:33:47;;;;;;;47.58;19.73;;;;;;;0.34;89.27;99217.81;5138586;27;20198;-55
2021/01/23 02:36:14;;;;;;;44.63;19.65;;;;;;;0.39;89.30;99213.00;5137311;27;20547;-54
2021/01/23 02:38:41;;;;;;;45.17;19.13;;;;;;;0.34;89.45;99211.88;5138612;27;20203;-57
2021/01/23 02:41:08;;;;;;;47.28;19.50;;;;;;;0.40;89.49;99213.09;5137122;27;20227;-56
2021/01/23 02:43:40;;;;;;;44.13;19.98;;;;;;;0.43;89.21;99214.06;5137726;27;20198;-51
2021/01/23 02:46:08;;;;;;;41.85;19.92;;;;;;;0.48;89.04;99212.66;5137004;27;20238;-53
2021/01/23 02:48:36;;;;;;;45.90;20.35;;;;;;;0.46;89.06;99221.88;5137672;27;20235;-56
2021/01/23 02:51:06;;;;;;;51.38;21.67;;;;;;;0.43;89.11;99222.56;5136834;27;20222;-56
2021/01/23 02:53:34;;;;;;;42.85;19.73;;;;;;;0.50;89.08;99217.06;5137770;27;20199;-56
2021/01/23 02:56:08;;;;;;;49.55;22.20;;;;;;;0.48;89.12;99227.91;5136330;27;20242;-52
2021/01/23 02:58:35;;;;;;;40.55;20.60;;;;;;;0.53;89.10;99227.38;5138372;27;20562;-54
2021/01/23 03:01:03;;;;;;;46.53;21.52;;;;;;;0.47;88.97;99226.16;5137252;27;20231;-52
2021/01/23 03:03:31;;;;;;;43.28;20.15;;;;;;;0.34;89.32;99230.53;5138157;27;20198;-57
2021/01/23 03:06:02;;;;;;;43.88;20.20;;;;;;;0.37;89.47;99230.69;5136980;27;20242;-53
2021/01/23 03:08:29;;;;;;;55.03;22.70;;;;;;;0.39;89.64;99230.78;5137964;27;20665;-58
2021/01/23 03:10:56;;;;;;;49.50;20.63;;;;;;;0.46;89.27;99239.63;5137160;27;20322;-52
2021/01/23 03:13:22;;;;;;;41.80;20.60;;;;;;;0.42;89.51;99233.50;5137798;27;20317;-55
2021/01/23 03:15:49;;;;;;;48.30;21.80;;;;;;;0.46;89.23;99235.41;5136461;27;20279;-54
2021/01/23 03:18:16;;;;;;;51.25;21.83;;;;;;;0.47;89.34;99237.16;5138073;27;20278;-53
2021/01/23 03:20:43;;;;;;;52.67;21.65;;;;;;;0.44;89.29;99231.03;5137094;27;20251;-56
2021/01/23 03:23:10;;;;;;;45.45;19.52;;;;;;;0.35;89.80;99229.72;5137752;27;20199;-53
2021/01/23 03:25:37;;;;;;;45.67;20.00;;;;;;;0.39;89.79;99229.13;5136471;27;20321;-55
2021/01/23 03:28:04;;;;;;;54.83;22.63;;;;;;;0.49;89.63;99217.84;5137429;27;20699;-54
2021/01/23 03:30:31;;;;;;;47.50;20.98;;;;;;;0.45;89.36;99223.50;5135215;27;20273;-55
2021/01/23 03:32:58;;;;;;;54.65;22.05;;;;;;;0.49;89.29;99224.56;5137580;27;20230;-53
2021/01/23 03:35:26;;;;;;;52.80;22.98;;;;;;;0.49;89.24;99217.84;5136224;27;20242;-56
2021/01/23 03:37:52;;;;;;;54.88;22.77;;;;;;;0.58;89.12;99220.03;5137435;27;20285;-49
2021/01/23 03:40:20;;;;;;;52.05;22.90;;;;;;;0.50;89.22;99221.25;5136282;27;20280;-54
2021/01/23 03:42:47;;;;;;;67.03;26.75;;;;;;;0.50;89.77;99221.25;5137552;27;20294;-53
2021/01/23 03:45:14;;;;;;;47.38;20.13;;;;;;;0.41;89.45;99226.66;5136386;27;20321;-55
2021/01/23 03:47:40;;;;;;;58.72;23.17;;;;;;;0.33;89.71;99228.78;5137308;27;20536;-55
2021/01/23 03:50:09;;;;;;;54.05;23.15;;;;;;;0.40;89.77;99219.84;5136399;27;20230;-55
2021/01/23 03:52:36;;;;;;;54.33;22.77;;;;;;;0.43;89.83;99214.06;5137189;27;20234;-56
2021/01/23 03:55:04;;;;;;;52.65;22.77;;;;;;;0.37;89.95;99223.06;5136184;27;20313;-52
2021/01/23 03:57:31;;;;;;;53.97;21.60;;;;;;;0.35;90.06;99211.97;5137298;27;20215;-51
2021/01/23 03:59:58;;;;;;;56.15;22.77;;;;;;;0.37;89.83;99218.00;5135314;27;20518;-55
2021/01/23 04:02:24;;;;;;;55.88;22.75;;;;;;;0.38;90.02;99217.22;5137218;27;20226;-55
2021/01/23 04:04:51;;;;;;;55.05;24.45;;;;;;;0.39;89.95;99224.06;5136129;27;20234;-56
2021/01/23 04:07:18;;;;;;;50.08;21.60;;;;;;;0.46;89.83;99227.81;5137381;27;20261;-55
2021/01/23 04:09:46;;;;;;;55.00;24.98;;;;;;;0.51;89.61;99220.47;5135238;27;20241;-55
2021/01/23 04:12:12;;;;;;;60.20;22.92;;;;;;;0.47;89.80;99231.22;5137115;28;20314;-58
2021/01/23 04:14:40;;;;;;;49.90;21.70;;;;;;;0.56;89.88;99226.66;5136086;28;20246;-55
2021/01/23 04:17:07;;;;;;;52.17;23.45;;;;;;;0.54;89.50;99220.63;5136932;28;20219;-55
2021/01/23 04:19:33;;;;;;;54.85;22.00;;;;;;;0.55;89.79;99219.84;5136219;28;20259;-56
2021/01/23 04:22:00;;;;;;;54.40;23.10;;;;;;;0.60;89.33;99225.16;5136761;28;20195;-52
2021/01/23 04:24:27;;;;;;;60.75;26.40;;;;;;;0.72;89.57;99223.34;5135566;28;20238;-55
2021/01/23 04:26:53;;;;;;;46.95;21.60;;;;;;;0.63;89.21;99221.19;5136920;28;20240;-58
2021/01/23 04:29:20;;;;;;;53.88;22.38;;;;;;;0.66;89.06;99223.88;5135482;28;20580;-51
2021/01/23 04:31:47;;;;;;;63.22;23.83;;;;;;;0.66;89.26;99213.72;5136772;28;20219;-56
2021/01/23 04:34:14;;;;;;;59.05;23.65;;;;;;;0.70;88.89;99219.84;5135557;28;20225;-52
2021/01/23 04:36:41;;;;;;;50.85;23.40;;;;;;;0.75;89.00;99215.91;5136766;28;20237;-53
2021/01/23 04:39:07;;;;;;;54.83;24.58;;;;;;;0.73;88.79;99209.00;5136552;28;20281;-54
2021/01/23 04:41:34;;;;;;;60.10;24.55;;;;;;;0.72;89.02;99213.19;5139478;27;20234;-53
2021/01/23 04:44:01;;;;;;;46.15;21.42;;;;;;;0.77;88.79;99200.75;5140741;27;20202;-56
2021/01/23 04:46:27;;;;;;;61.13;27.00;;;;;;;0.78;89.28;99205.03;5139602;27;20317;-57
2021/01/23 04:48:56;;;;;;;61.10;24.00;;;;;;;0.77;89.15;99208.38;5140731;27;20897;-56
2021/01/23 04:51:24;;;;;;;56.13;23.80;;;;;;;0.67;89.42;99205.31;5138909;27;20474;-55
2021/01/23 04:53:50;;;;;;;55.47;23.75;;;;;;;0.84;89.01;99213.00;5140963;27;20205;-53
2021/01/23 04:56:17;;;;;;;53.58;23.40;;;;;;;0.77;88.87;99218.53;5138954;27;20237;-55
2021/01/23 04:58:43;;;;;;;54.30;23.80;;;;;;;0.69;89.32;99217.22;5140543;27;20294;-52
2021/01/23 05:01:13;;;;;;;52.28;24.08;;;;;;;0.80;89.30;99214.50;5139721;27;20226;-56
2021/01/23 05:03:54;;;;;;;49.78;23.27;;;;;;;0.78;88.84;99217.75;5140685;27;20278;-54
2021/01/23 05:06:21;;;;;;;56.00;23.00;;;;;;;0.70;88.42;99221.50;5139472;27;20262;-56
2021/01/23 05:08:48;;;;;;;55.38;21.55;;;;;;;0.70;88.51;99213.88;5140342;27;20194;-55
2021/01/23 05:11:14;;;;;;;53.00;22.40;;;;;;;0.71;88.33;99213.13;5139376;27;20250;-55
2021/01/23 05:14:01;;;;;;;52.00;22.17;;;;;;;0.76;88.09;99215.09;5140392;27;20202;-53
2021/01/23 05:16:29;;;;;;;44.35;20.00;;;;;;;0.62;88.01;99211.78;5119932;27;20238;-54
2021/01/23 05:18:57;;;;;;;48.78;21.08;;;;;;;0.59;88.13;99216.69;5140196;27;20632;-56
2021/01/23 05:21:24;;;;;;;47.97;20.83;;;;;;;0.58;88.11;99212.41;5139300;27;20288;-55
2021/01/23 05:24:02;;;;;;;43.67;21.15;;;;;;;0.69;87.61;99212.13;5140256;27;20243;-54
2021/01/23 05:26:29;;;;;;;45.88;19.67;;;;;;;0.65;87.91;99203.47;5139657;27;20226;-57
2021/01/23 05:29:05;;;;;;;42.05;20.40;;;;;;;0.63;87.95;99208.47;5139879;27;20198;-55
2021/01/23 05:31:32;;;;;;;41.53;19.67;;;;;;;0.71;87.98;99197.88;5139638;27;20310;-54
2021/01/23 05:34:00;;;;;;;46.63;19.38;;;;;;;0.73;87.57;99203.91;5139705;27;20199;-58
2021/01/23 05:36:28;;;;;;;42.33;19.20;;;;;;;0.76;87.37;99206.59;5138947;27;20261;-51
2021/01/23 05:38:56;;;;;;;49.20;19.63;;;;;;;0.80;87.28;99211.06;5139851;27;20460;-59
2021/01/23 05:41:22;;;;;;;43.90;19.10;;;;;;;0.76;87.50;99209.16;5138086;27;20457;-52
2021/01/23 05:43:50;;;;;;;44.92;20.23;;;;;;;0.87;86.89;99210.63;5139899;27;20877;-57
2021/01/23 05:46:19;;;;;;;47.92;18.45;;;;;;;0.82;86.88;99214.56;5138313;27;20242;-57
2021/01/23 05:48:47;;;;;;;38.73;19.50;;;;;;;0.89;86.77;99213.25;5139659;27;20228;-58
2021/01/23 05:51:15;;;;;;;42.65;20.13;;;;;;;0.80;86.53;99221.22;5138735;27;20862;-57
2021/01/23 05:53:42;;;;;;;42.37;19.43;;;;;;;0.63;87.40;99216.09;5138994;27;20205;-53
2021/01/23 05:56:09;;;;;;;52.50;19.70;;;;;;;0.81;86.48;99212.81;5138198;27;20561;-55
2021/01/23 05:58:37;;;;;;;46.22;20.42;;;;;;;0.76;86.88;99211.69;5139661;27;20423;-56
2021/01/23 06:01:06;;;;;;;44.10;19.15;;;;;;;0.73;86.70;99214.06;5138311;27;20258;-58
2021/01/23 06:03:35;;;;;;;46.40;20.93;;;;;;;0.70;86.68;99214.75;5139615;27;20294;-57
2021/01/23 06:06:03;;;;;;;46.70;20.20;;;;;;;0.88;86.33;99208.97;5138127;27;20477;-58
2021/01/23 06:08:40;;;;;;;44.75;20.20;;;;;;;0.68;86.37;99211.28;5139568;27;20537;-57
2021/01/23 06:11:39;;;;;;;47.10;20.63;;;;;;;0.58;87.13;99214.06;5137460;27;20712;-55
2021/01/23 06:14:46;;;;;;;51.10;20.90;;;;;;;0.69;87.01;99214.66;5124930;27;20576;-53
2021/01/23 06:17:45;;;;;;;44.75;20.30;;;;;;;0.65;87.01;99211.97;5138970;27;20255;-57
2021/01/23 06:20:47;;;;;;;49.15;21.10;;;;;;;0.67;86.74;99202.78;5138594;27;20235;-57
2021/01/23 06:23:16;;;;;;;51.90;21.02;;;;;;;0.56;87.30;99202.97;5138967;27;20318;-53
2021/01/23 06:25:59;;;;;;;49.88;20.13;;;;;;;0.42;87.90;99210.66;5136534;27;20275;-55
2021/01/23 06:28:49;;;;;;;45.90;20.55;;;;;;;0.66;87.03;99211.19;5138993;27;20287;-59
2021/01/23 06:31:35;;;;;;;53.05;21.58;;;;;;;0.74;87.33;99205.66;5137714;27;20235;-54
2021/01/23 06:34:27;;;;;;;48.97;21.63;;;;;;;0.66;86.86;99207.75;5138661;27;20500;-55
2021/01/23 06:37:24;;;;;;;54.58;21.30;;;;;;;0.80;86.35;99208.53;5138659;27;20591;-56
2021/01/23 06:40:09;;;;;;;47.45;21.60;;;;;;;0.80;86.53;99216.16;5137012;27;20691;-55
2021/01/23 06:42:44;;;;;;;44.47;21.92;;;;;;;0.80;86.40;99211.97;5138901;27;20191;-57
2021/01/23 06:45:13;;;;;;;45.10;21.60;;;;;;;0.60;86.58;99218.44;5136565;27;20524;-55
2021/01/23 06:47:40;;;;;;;51.58;21.75;;;;;;;0.77;86.28;99227.00;5138743;27;20306;-55
2021/01/23 06:50:08;;;;;;;53.33;23.33;;;;;;;0.74;86.08;99225.97;5137177;27;20231;-54
2021/01/23 06:52:48;;;;;;;53.72;23.38;;;;;;;0.64;86.44;99230.53;5138630;27;20222;-57
2021/01/23 06:55:15;;;;;;;56.78;22.55;;;;;;;0.75;86.69;99237.88;5136234;27;20539;-55
2021/01/23 06:57:47;;;;;;;51.72;21.90;;;;;;;0.87;86.15;99237.72;5137738;27;20708;-52
2021/01/23 07:00:15;;;;;;;49.30;22.67;;;;;;;0.73;86.28;99234.38;5136471;27;20317;-55
2021/01/23 07:02:41;;;;;;;54.92;24.60;;;;;;;0.78;86.18;99240.59;5138282;27;20472;-56
2021/01/23 07:05:09;;;;;;;55.05;24.33;;;;;;;0.82;86.15;99234.88;5136050;27;20315;-56
2021/01/23 07:07:37;;;;;;;62.13;24.85;;;;;;;0.73;86.23;99236.91;5138302;27;20218;-55
2021/01/23 07:10:06;;;;;;;52.67;23.00;;;;;;;0.62;86.65;99234.63;5137202;27;20242;-56
2021/01/23 07:12:35;;;;;;;56.92;23.52;;;;;;;0.37;87.35;99240.81;5138021;27;20219;-58
2021/01/23 07:15:04;;;;;;;55.78;23.95;;;;;;;0.06;88.33;99233.94;5136699;27;20238;-58
2021/01/23 07:17:34;;;;;;;54.60;23.00;;;;;;;0.12;88.63;99234.31;5137911;27;20219;-55
2021/01/23 07:20:06;;;;;;;51.75;21.95;;;;;;;0.05;88.99;99232.19;5137370;27;20242;-51
2021/01/23 07:22:33;;;;;;;53.35;24.33;;;;;;;0.18;89.19;99227.84;5137978;27;20553;-55
2021/01/23 07:25:01;;;;;;;55.35;24.00;;;;;;;0.29;88.40;99236.97;5135719;27;20238;-54
2021/01/23 07:27:27;;;;;;;74.65;24.67;;;;;;;0.39;88.29;99224.06;5137774;27;20220;-56
2021/01/23 07:29:54;;;;;;;69.03;24.17;;;;;;;0.21;88.72;99228.91;5137276;27;20325;-58
2021/01/23 07:32:22;;;;;;;55.75;23.30;;;;;;;0.35;88.63;99224.66;5137785;27;20262;-56
2021/01/23 07:34:53;;;;;;;60.30;24.38;;;;;;;0.36;88.73;99223.84;5135682;27;20249;-54
2021/01/23 07:37:41;;;;;;;71.00;26.77;;;;;;;0.40;88.57;99219.84;5137784;27;20218;-57
2021/01/23 07:40:09;;;;;;;59.15;23.95;;;;;;;0.63;88.15;99218.63;5135585;27;20269;-56
2021/01/23 07:42:36;;;;;;;70.00;29.30;;;;;;;0.75;89.49;99222.63;5137727;27;20197;-56
2021/01/23 07:45:04;;;;;;;70.40;27.08;;;;;;;0.76;88.15;99224.38;5136411;27;20268;-58
2021/01/23 07:47:32;;;;;;;63.28;26.23;;;;;;;0.48;88.26;99227.91;5137599;27;20306;-55
2021/01/23 07:50:04;;;;;;;72.15;27.25;;;;;;;0.59;88.44;99225.97;5135835;27;20529;-57
2021/01/23 07:52:32;;;;;;;61.08;26.30;;;;;;;0.72;88.03;99217.41;5137390;27;20279;-56
2021/01/23 07:54:58;;;;;;;75.28;28.05;;;;;;;0.74;87.83;99219.25;5135181;27;20313;-57
2021/01/23 07:57:25;;;;;;;78.45;27.42;;;;;;;0.48;88.06;99216.09;5137470;27;20215;-56
2021/01/23 07:59:53;;;;;;;67.18;26.95;;;;;;;0.52;88.32;99209.53;5136212;27;20325;-55
2021/01/23 08:02:19;;;;;;;62.40;25.45;;;;;;;0.45;88.34;99208.28;5137402;27;20199;-57
2021/01/23 08:04:49;;;;;;;73.82;28.52;;;;;;;0.44;88.81;99211.63;5136163;27;20317;-55
2021/01/23 08:07:26;;;;;;;76.80;26.20;;;;;;;0.33;88.93;99197.44;5137085;27;20328;-57
2021/01/23 08:10:11;;;;;;;68.47;27.40;;;;;;;0.38;89.10;99196.03;5135248;27;20704;-55
2021/01/23 08:12:39;;;;;;;68.72;27.20;;;;;;;0.54;89.16;99192.72;5137195;28;20605;-58
2021/01/23 08:15:07;;;;;;;67.22;26.25;;;;;;;0.60;88.73;99197.25;5135543;27;20313;-54
2021/01/23 08:17:42;;;;;;;79.15;29.63;;;;;;;0.58;89.01;99197.19;5143868;27;20222;-54
2021/01/23 08:20:12;;;;;;;76.32;27.30;;;;;;;0.47;89.69;99195.69;5142414;27;20234;-52
2021/01/23 08:22:59;;;;;;;68.15;27.33;;;;;;;0.48;89.38;99189.81;5144068;27;20281;-59
2021/01/23 08:25:27;;;;;;;66.90;26.02;;;;;;;0.48;89.16;99188.19;5141763;27;20244;-52
2021/01/23 08:27:55;;;;;;;69.35;27.13;;;;;;;0.60;89.26;99185.44;5143725;27;20199;-52
2021/01/23 08:30:23;;;;;;;69.95;27.33;;;;;;;0.59;89.02;99180.28;5141958;27;20234;-57
2021/01/23 08:32:49;;;;;;;61.05;25.83;;;;;;;0.56;88.98;99169.97;5143814;27;20223;-55
2021/01/23 08:35:18;;;;;;;62.97;26.85;;;;;;;0.54;88.93;99174.94;5141719;27;20636;-54
2021/01/23 08:37:45;;;;;;;67.90;28.02;;;;;;;0.50;89.22;99166.28;5143653;27;20314;-51
2021/01/23 08:40:12;;;;;;;64.47;25.60;;;;;;;0.51;89.03;99169.72;5141635;27;20321;-56
2021/01/23 08:42:39;;;;;;;78.75;30.40;;;;;;;0.54;89.18;99172.41;5143461;27;20444;-53
2021/01/23 08:45:07;;;;;;;66.35;25.90;;;;;;;0.60;88.99;99177.84;5142380;27;20321;-50
2021/01/23 08:47:34;;;;;;;66.60;27.20;;;;;;;0.71;88.74;99172.50;5143889;27;20215;-56
2021/01/23 08:50:00;;;;;;;59.08;24.73;;;;;;;0.84;88.12;99169.84;5141906;27;20234;-56
2021/01/23 08:52:30;;;;;;;65.40;27.52;;;;;;;0.76;87.88;99179.56;5143736;27;21062;-54
2021/01/23 08:54:56;;;;;;;77.35;28.58;;;;;;;0.82;88.41;99176.47;5141672;27;20321;-54
2021/01/23 08:57:23;;;;;;;79.53;31.05;;;;;;;0.74;88.41;99170.09;5143563;27;20222;-54
2021/01/23 08:59:50;;;;;;;63.70;25.75;;;;;;;0.91;87.97;99171.91;5141747;27;20239;-55
2021/01/23 09:02:16;;;;;;;69.03;26.75;;;;;;;0.90;87.99;99171.81;5143348;27;20194;-54
2021/01/23 09:04:43;;;;;;;69.03;26.20;;;;;;;0.82;88.00;99181.56;5141260;27;20234;-56
2021/01/23 09:07:10;;;;;;;60.13;25.70;;;;;;;0.85;88.24;99183.41;5143379;27;20219;-55
2021/01/23 09:09:37;;;;;;;61.97;25.40;;;;;;;0.84;88.32;99182.53;5142506;27;20310;-55
2021/01/23 09:12:05;;;;;;;65.95;26.90;;;;;;;0.98;88.94;99180.75;5143347;27;20314;-57
2021/01/23 09:14:32;;;;;;;70.67;25.73;;;;;;;1.07;87.71;99181.25;5140987;27;20310;-54
2021/01/23 09:16:59;;;;;;;63.05;26.45;;;;;;;1.02;87.88;99185.19;5143678;27;20485;-56
2021/01/23 09:19:25;;;;;;;62.97;25.38;;;;;;;0.59;88.55;99198.94;5141704;27;20677;-55
2021/01/23 09:21:52;;;;;;;41.80;15.87;;;;;;;0.48;89.59;99210.13;5143370;27;20195;-53
2021/01/23 09:24:19;;;;;;;67.80;24.02;;;;;;;0.61;89.50;99215.13;5141262;27;20455;-55
2021/01/23 09:26:46;;;;;;;65.03;25.98;;;;;;;0.65;89.45;99209.44;5141876;27;20629;-53
2021/01/23 09:29:13;;;;;;;63.88;26.05;;;;;;;0.86;89.35;99206.34;5137922;27;20209;-57
2021/01/23 09:31:40;;;;;;;72.10;27.08;;;;;;;1.03;89.23;99198.78;5139942;27;20592;-57
2021/01/23 09:34:07;;;;;;;71.50;27.60;;;;;;;1.01;89.09;99190.19;5138081;27;20202;-58
2021/01/23 09:36:33;;;;;;;72.57;27.65;;;;;;;1.17;88.72;99191.91;5139659;27;20227;-57
2021/01/23 09:39:00;;;;;;;65.65;27.77;;;;;;;1.21;87.92;99196.38;5139806;27;20202;-54
2021/01/23 09:41:27;;;;;;;64.03;24.60;;;;;;;1.00;87.46;99203.69;5138174;27;20234;-54
2021/01/23 09:43:55;;;;;;;59.13;22.98;;;;;;;1.24;87.99;99211.81;5139963;27;20206;-57
2021/01/23 09:46:22;;;;;;;64.35;27.13;;;;;;;1.07;87.68;99208.31;5137945;27;20317;-52
2021/01/23 09:48:48;;;;;;;72.97;26.02;;;;;;;1.08;87.60;99202.47;5139665;27;20195;-56
2021/01/23 09:51:15;;;;;;;65.95;25.70;;;;;;;1.18;87.60;99189.44;5137941;27;20548;-54
2021/01/23 09:53:42;;;;;;;63.95;28.02;;;;;;;1.44;87.06;99194.19;5139913;27;20571;-52
2021/01/23 09:56:12;;;;;;;64.78;25.58;;;;;;;1.43;86.42;99195.00;5137222;27;20288;-56
2021/01/23 09:58:40;;;;;;;58.35;25.77;;;;;;;1.36;86.40;99198.88;5139379;27;20203;-53
2021/01/23 10:01:07;;;;;;;59.03;25.00;;;;;;;1.61;86.62;99207.81;5137723;27;20241;-52
2021/01/23 10:03:34;;;;;;;66.47;26.50;;;;;;;1.44;86.18;99197.59;5139449;27;20671;-57
2021/01/23 10:06:00;;;;;;;57.37;27.20;;;;;;;1.62;87.14;99196.84;5137184;27;20234;-54
2021/01/23 10:08:27;;;;;;;57.08;25.45;;;;;;;1.56;85.60;99196.50;5139511;27;20437;-57
2021/01/23 10:10:53;;;;;;;50.80;20.80;;;;;;;1.38;85.74;99212.53;5137372;27;20250;-56
2021/01/23 10:13:20;;;;;;;62.03;25.80;;;;;;;1.37;86.34;99208.22;5136761;27;20495;-53
2021/01/23 10:15:46;;;;;;;57.95;24.92;;;;;;;1.29;86.15;99201.88;5134154;27;20439;-52
2021/01/23 10:18:14;;;;;;;58.53;25.10;;;;;;;1.35;86.39;99197.13;5138716;27;20199;-56
2021/01/23 10:20:41;;;;;;;75.70;30.10;;;;;;;1.41;86.09;99188.94;5137106;27;20508;-56
2021/01/23 10:23:08;;;;;;;71.72;25.52;;;;;;;1.38;86.19;99192.19;5138810;27;20454;-58
2021/01/23 10:25:36;;;;;;;56.13;23.50;;;;;;;1.52;85.72;99197.13;5136885;27;20261;-57
2021/01/23 10:28:07;;;;;;;53.87;23.87;;;;;;;1.40;85.81;99198.25;5138675;27;20537;-52
2021/01/23 10:30:34;;;;;;;61.40;25.53;;;;;;;1.71;85.48;99187.16;5137167;27;20479;-55
2021/01/23 10:33:02;;;;;;;51.10;22.13;;;;;;;1.67;84.91;99185.25;5138274;27;20458;-56
2021/01/23 10:35:31;;;;;;;52.53;21.23;;;;;;;1.62;85.48;99189.19;5136580;27;20313;-55
2021/01/23 10:37:59;;;;;;;58.30;24.67;;;;;;;1.77;84.98;99185.69;5138692;27;20463;-57
2021/01/23 10:40:27;;;;;;;38.50;15.90;;;;;;;1.76;84.09;99184.84;5136674;27;20480;-51
2021/01/23 10:42:55;;;;;;;27.43;11.57;;;;;;;1.79;84.02;99182.44;5137558;27;20427;-55
2021/01/23 10:45:24;;;;;;;74.80;26.43;;;;;;;1.81;84.00;99185.06;5136195;27;20509;-55
2021/01/23 10:47:51;;;;;;;23.53;10.03;;;;;;;1.65;84.09;99185.94;5137940;27;20478;-53
2021/01/23 10:50:19;;;;;;;45.97;20.50;;;;;;;1.72;84.11;99183.81;5136353;27;20479;-56
2021/01/23 10:52:48;;;;;;;42.33;16.95;;;;;;;1.83;83.73;99183.47;5138346;27;20458;-55
2021/01/23 10:55:15;;;;;;;37.10;14.13;;;;;;;1.70;83.74;99175.22;5136036;27;20245;-49
2021/01/23 10:57:42;;;;;;;49.40;20.67;;;;;;;1.73;83.65;99165.22;5137975;27;20520;-53
2021/01/23 11:00:10;;;;;;;53.13;23.20;;;;;;;1.83;83.59;99176.72;5136261;27;20528;-55
2021/01/23 11:02:38;;;;;;;51.00;20.50;;;;;;;2.02;83.30;99163.25;5138515;27;20479;-54
2021/01/23 11:05:06;;;;;;;37.80;10.50;;;;;;;2.04;82.45;99154.88;5136112;27;20481;-54
2021/01/23 11:07:53;;;;;;;55.63;22.80;;;;;;;1.99;82.88;99146.97;5137149;27;20438;-54
2021/01/23 11:10:20;;;;;;;52.53;19.47;;;;;;;2.05;81.69;99146.44;5137000;27;20446;-55
2021/01/23 11:12:46;;;;;;;48.37;19.00;;;;;;;2.08;81.65;99142.34;5137658;27;20451;-54
2021/01/23 11:15:15;;;;;;;43.20;14.80;;;;;;;1.98;81.96;99151.22;5136024;27;20909;-55
2021/01/23 11:17:43;;;;;;;48.27;19.80;;;;;;;2.05;81.81;99136.25;5137759;27;20447;-53
2021/01/23 11:20:11;;;;;;;41.83;17.07;;;;;;;2.02;81.33;99136.97;5136917;27;20450;-58
2021/01/23 11:22:38;;;;;;;42.27;17.67;;;;;;;2.16;81.11;99140.22;5137286;27;20446;-56
2021/01/23 11:25:07;;;;;;;39.90;17.70;;;;;;;2.16;80.73;99122.38;5135595;27;20463;-58
2021/01/23 11:27:35;;;;;;;43.90;17.87;;;;;;;2.18;81.23;99125.00;5137739;27;20450;-57
2021/01/23 11:30:02;;;;;;;49.20;20.10;;;;;;;2.39;81.08;99127.72;5136634;27;20983;-56
2021/01/23 11:32:29;;;;;;;42.13;19.50;;;;;;;2.47;79.73;99116.25;5137562;27;20486;-56
2021/01/23 11:34:56;;;;;;;35.67;16.77;;;;;;;2.50;79.73;99111.28;5135868;27;20912;-54